Terminal Aerodrome Forecast
Issued by NWS

Home | Current Version | Previous Version | Text Only | Print | Product List | Glossary On
Versions: 1 2 3 4 5 6 7 8 9 10 11 12
000
FTUS46 KMFR 022332
TAFLMT
TAF
KLMT 022332Z 0300/0324 18007KT P6SM -SHRA VCTS BKN050CB BKN120
     FM030500 VRB05KT P6SM SCT060 SCT120 SCT250
     FM031900 18011KT P6SM BKN080=

USA.gov is the U.S. government's official web portal to all federal, state and local government web resources and services.